Time,TemperatureF,DewpointF,PressureIn,WindDirection,WindDirectionDegrees,WindSpeedMPH,WindSpeedGustMPH,Humidity,HourlyPrecipIn,Conditions,Clouds,dailyrainin,SolarRadiationWatts/m^2,SoftwareType,DateUTC
2013-03-04 00:01:00,38.0,33.0,-100.00,NW,324,3.0,-999.0,83,0.00,,,-99.99,0.000000,,2013-03-04 05:01:00,
2013-03-04 00:11:00,37.0,33.0,-100.00,North,11,3.0,-999.0,86,0.00,,,-99.99,0.000000,,2013-03-04 05:11:00,
2013-03-04 00:22:00,37.0,33.0,-100.00,North,11,3.0,-999.0,86,0.00,,,-99.99,0.000000,,2013-03-04 05:22:00,
2013-03-04 00:32:00,37.0,34.0,-100.00,North,9,4.0,-999.0,87,0.00,,,-99.99,0.000000,,2013-03-04 05:32:00,
2013-03-04 00:42:00,38.0,34.0,-100.00,North,10,4.0,-999.0,87,0.00,,,-99.99,0.000000,,2013-03-04 05:42:00,
2013-03-04 00:52:00,38.0,34.0,-100.00,North,10,4.0,-999.0,87,0.00,,,-99.99,0.000000,,2013-03-04 05:52:00,
2013-03-04 01:02:00,38.0,34.0,-100.00,NNE,24,4.0,-999.0,86,0.00,,,-99.99,0.000000,,2013-03-04 06:02:00,
2013-03-04 01:11:00,37.0,33.0,-100.00,ENE,73,2.0,-999.0,87,0.00,,,-99.99,0.000000,,2013-03-04 06:11:00,
2013-03-04 01:21:00,37.0,33.0,-100.00,ENE,73,2.0,-999.0,87,0.00,,,-99.99,0.000000,,2013-03-04 06:21:00,
2013-03-04 01:32:00,36.0,33.0,-100.00,ENE,68,3.0,-999.0,88,0.00,,,-99.99,0.000000,,2013-03-04 06:32:00,
2013-03-04 01:42:00,35.0,32.0,-100.00,ENE,61,3.0,-999.0,89,0.00,,,-99.99,0.000000,,2013-03-04 06:42:00,
2013-03-04 01:52:00,35.0,32.0,-100.00,ENE,61,3.0,-999.0,89,0.00,,,-99.99,0.000000,,2013-03-04 06:52:00,
2013-03-04 02:01:00,34.0,32.0,-100.00,ENE,60,3.0,-999.0,90,0.00,,,-99.99,0.000000,,2013-03-04 07:01:00,
2013-03-04 02:11:00,35.0,33.0,-100.00,NE,48,4.0,-999.0,91,0.00,,,-99.99,0.000000,,2013-03-04 07:11:00,
2013-03-04 02:21:00,35.0,33.0,-100.00,NE,48,4.0,-999.0,91,0.00,,,-99.99,0.000000,,2013-03-04 07:21:00,
2013-03-04 02:32:00,36.0,33.0,-100.00,NE,44,3.0,-999.0,90,0.00,,,-99.99,0.000000,,2013-03-04 07:32:00,
2013-03-04 02:42:00,34.0,32.0,-100.00,ESE,118,1.0,-999.0,89,0.00,,,-99.99,0.000000,,2013-03-04 07:42:00,
2013-03-04 02:52:00,34.0,32.0,-100.00,ESE,118,1.0,-999.0,89,0.00,,,-99.99,0.000000,,2013-03-04 07:52:00,
2013-03-04 03:02:00,34.0,31.0,-100.00,East,94,2.0,-999.0,91,0.00,,,-99.99,0.000000,,2013-03-04 08:02:00,
2013-03-04 03:12:00,35.0,33.0,-100.00,NE,49,4.0,-999.0,92,0.00,,,-99.99,0.000000,,2013-03-04 08:12:00,
2013-03-04 03:22:00,35.0,33.0,-100.00,NE,49,4.0,-999.0,92,0.00,,,-99.99,0.000000,,2013-03-04 08:22:00,
2013-03-04 03:32:00,35.0,33.0,-100.00,NE,43,3.0,-999.0,92,0.00,,,-99.99,0.000000,,2013-03-04 08:32:00,
2013-03-04 03:42:00,35.0,33.0,-100.00,NNE,20,4.0,-999.0,92,0.00,,,-99.99,0.000000,,2013-03-04 08:42:00,
2013-03-04 03:52:00,35.0,33.0,-100.00,NNE,20,4.0,-999.0,92,0.00,,,-99.99,0.000000,,2013-03-04 08:52:00,
2013-03-04 04:02:00,36.0,33.0,-100.00,North,2,5.0,-999.0,90,0.00,,,-99.99,0.000000,,2013-03-04 09:02:00,
2013-03-04 04:11:00,36.0,33.0,-100.00,North,1,5.0,-999.0,88,0.00,,,-99.99,0.000000,,2013-03-04 09:11:00,
2013-03-04 04:21:00,36.0,33.0,-100.00,North,1,5.0,-999.0,88,0.00,,,-99.99,0.000000,,2013-03-04 09:21:00,
2013-03-04 04:32:00,36.0,33.0,-100.00,North,5,5.0,-999.0,86,0.00,,,-99.99,0.000000,,2013-03-04 09:32:00,
2013-03-04 04:42:00,37.0,33.0,-100.00,North,6,5.0,-999.0,84,0.00,,,-99.99,0.000000,,2013-03-04 09:42:00,
2013-03-04 04:52:00,37.0,33.0,-100.00,North,6,5.0,-999.0,84,0.00,,,-99.99,0.000000,,2013-03-04 09:52:00,
2013-03-04 05:01:00,37.0,32.0,-100.00,North,6,5.0,-999.0,83,0.00,,,-99.99,0.000000,,2013-03-04 10:01:00,
2013-03-04 05:12:00,37.0,32.0,-100.00,North,2,5.0,-999.0,82,0.00,,,-99.99,0.000000,,2013-03-04 10:12:00,
2013-03-04 05:22:00,37.0,32.0,-100.00,North,2,5.0,-999.0,82,0.00,,,-99.99,0.000000,,2013-03-04 10:22:00,
2013-03-04 05:32:00,37.0,32.0,-100.00,North,3,5.0,-999.0,82,0.00,,,-99.99,0.000000,,2013-03-04 10:32:00,
2013-03-04 05:42:00,37.0,32.0,-100.00,North,1,5.0,-999.0,82,0.00,,,-99.99,0.000000,,2013-03-04 10:42:00,
2013-03-04 05:52:00,37.0,32.0,-100.00,North,1,5.0,-999.0,82,0.00,,,-99.99,0.000000,,2013-03-04 10:52:00,
2013-03-04 06:02:00,36.0,31.0,-100.00,North,2,5.0,-999.0,81,0.00,,,-99.99,0.000000,,2013-03-04 11:02:00,
2013-03-04 06:11:00,36.0,31.0,-100.00,North,358,4.0,-999.0,82,0.00,,,-99.99,0.000000,,2013-03-04 11:11:00,
2013-03-04 06:22:00,36.0,31.0,-100.00,North,358,4.0,-999.0,82,0.00,,,-99.99,0.000000,,2013-03-04 11:22:00,
2013-03-04 06:32:00,35.0,31.0,-100.00,North,358,4.0,-999.0,84,0.00,,,-99.99,0.000000,,2013-03-04 11:32:00,
2013-03-04 06:42:00,34.0,31.0,-100.00,North,1,3.0,-999.0,86,0.00,,,-99.99,0.000000,,2013-03-04 11:42:00,
2013-03-04 06:52:00,34.0,31.0,-100.00,North,1,3.0,-999.0,86,0.00,,,-99.99,0.000000,,2013-03-04 11:52:00,
2013-03-04 07:01:00,34.0,31.0,-100.00,North,353,5.0,-999.0,88,0.00,,,-99.99,1.400000,,2013-03-04 12:01:00,
2013-03-04 07:11:00,36.0,32.0,-100.00,North,358,5.0,-999.0,86,0.00,,,-99.99,8.300000,,2013-03-04 12:11:00,
2013-03-04 07:22:00,36.0,32.0,-100.00,North,358,5.0,-999.0,86,0.00,,,-99.99,8.300000,,2013-03-04 12:22:00,
2013-03-04 07:32:00,37.0,33.0,-100.00,North,358,5.0,-999.0,84,0.00,,,-99.99,39.000000,,2013-03-04 12:32:00,
2013-03-04 07:42:00,39.0,33.0,-100.00,North,1,4.0,-999.0,79,0.00,,,-99.99,104.199997,,2013-03-04 12:42:00,
2013-03-04 07:53:00,39.0,33.0,-100.00,North,1,4.0,-999.0,79,0.00,,,-99.99,104.199997,,2013-03-04 12:53:00,
2013-03-04 08:02:00,39.0,33.0,-100.00,North,1,4.0,-999.0,79,0.00,,,-99.99,104.199997,,2013-03-04 13:02:00,
2013-03-04 08:11:00,44.0,34.0,-100.00,North,5,4.0,-999.0,67,0.00,,,-99.99,205.399994,,2013-03-04 13:11:00,
2013-03-04 08:21:00,44.0,34.0,-100.00,North,5,4.0,-999.0,67,0.00,,,-99.99,205.399994,,2013-03-04 13:21:00,
2013-03-04 08:32:00,45.0,32.0,-100.00,North,2,4.0,-999.0,59,0.00,,,-99.99,253.000000,,2013-03-04 13:32:00,
2013-03-04 08:42:00,46.0,29.0,-100.00,North,4,8.0,-999.0,50,0.00,,,-99.99,305.700012,,2013-03-04 13:42:00,
2013-03-04 08:52:00,46.0,29.0,-100.00,North,4,8.0,-999.0,50,0.00,,,-99.99,305.700012,,2013-03-04 13:52:00,
2013-03-04 09:01:00,47.0,27.0,-100.00,North,3,9.0,-999.0,45,0.00,,,-99.99,359.399994,,2013-03-04 14:01:00,
2013-03-04 09:12:00,48.0,27.0,-100.00,NNE,12,9.0,-999.0,44,0.00,,,-99.99,412.000000,,2013-03-04 14:12:00,
2013-03-04 09:22:00,48.0,27.0,-100.00,NNE,12,9.0,-999.0,44,0.00,,,-99.99,412.000000,,2013-03-04 14:22:00,
2013-03-04 09:32:00,49.0,26.0,-100.00,NNE,12,10.0,-999.0,40,0.00,,,-99.99,462.100006,,2013-03-04 14:32:00,
2013-03-04 09:42:00,49.0,26.0,-100.00,NNE,12,10.0,-999.0,40,0.00,,,-99.99,462.100006,,2013-03-04 14:42:00,
2013-03-04 09:52:00,50.0,25.0,-100.00,NNE,22,9.0,-999.0,38,0.00,,,-99.99,386.200012,,2013-03-04 14:52:00,
2013-03-04 10:01:00,51.0,25.0,-100.00,NNE,16,10.0,-999.0,36,0.00,,,-99.99,501.399994,,2013-03-04 15:01:00,
2013-03-04 10:11:00,51.0,25.0,-100.00,North,11,9.0,-999.0,36,0.00,,,-99.99,601.400024,,2013-03-04 15:11:00,
2013-03-04 10:22:00,51.0,25.0,-100.00,North,11,9.0,-999.0,36,0.00,,,-99.99,601.400024,,2013-03-04 15:22:00,
2013-03-04 10:32:00,52.0,25.0,-100.00,NNE,17,9.0,-999.0,34,0.00,,,-99.99,642.500000,,2013-03-04 15:32:00,
2013-03-04 10:42:00,53.0,25.0,-100.00,North,11,9.0,-999.0,33,0.00,,,-99.99,680.000000,,2013-03-04 15:42:00,
2013-03-04 10:52:00,53.0,25.0,-100.00,North,11,9.0,-999.0,33,0.00,,,-99.99,680.000000,,2013-03-04 15:52:00,
2013-03-04 11:02:00,54.0,25.0,-100.00,NNE,19,9.0,-999.0,32,0.00,,,-99.99,714.000000,,2013-03-04 16:02:00,
2013-03-04 11:11:00,54.0,24.0,-100.00,North,1,8.0,-999.0,31,0.00,,,-99.99,743.000000,,2013-03-04 16:11:00,
2013-03-04 11:21:00,54.0,24.0,-100.00,North,1,8.0,-999.0,31,0.00,,,-99.99,743.000000,,2013-03-04 16:21:00,
2013-03-04 11:32:00,54.0,24.0,-100.00,North,1,8.0,-999.0,31,0.00,,,-99.99,743.000000,,2013-03-04 16:32:00,
2013-03-04 11:42:00,56.0,24.0,-100.00,North,11,7.0,-999.0,29,0.00,,,-99.99,792.000000,,2013-03-04 16:42:00,
2013-03-04 11:52:00,56.0,24.0,-100.00,North,11,7.0,-999.0,29,0.00,,,-99.99,792.000000,,2013-03-04 16:52:00,
2013-03-04 12:02:00,56.0,24.0,-100.00,NNE,30,6.0,-999.0,29,0.00,,,-99.99,810.000000,,2013-03-04 17:02:00,
2013-03-04 12:11:00,57.0,24.0,-100.00,NNE,12,7.0,-999.0,28,0.00,,,-99.99,823.000000,,2013-03-04 17:11:00,
2013-03-04 12:22:00,57.0,24.0,-100.00,NNE,12,7.0,-999.0,28,0.00,,,-99.99,823.000000,,2013-03-04 17:22:00,
2013-03-04 12:32:00,57.0,24.0,-100.00,NNE,12,7.0,-999.0,28,0.00,,,-99.99,823.000000,,2013-03-04 17:32:00,
2013-03-04 12:42:00,58.0,24.0,-100.00,NNE,17,5.0,-999.0,26,0.00,,,-99.99,837.000000,,2013-03-04 17:42:00,
2013-03-04 12:52:00,58.0,24.0,-100.00,NNE,17,5.0,-999.0,26,0.00,,,-99.99,837.000000,,2013-03-04 17:52:00,
2013-03-04 13:01:00,59.0,25.0,-100.00,NNW,347,6.0,-999.0,26,0.00,,,-99.99,839.000000,,2013-03-04 18:01:00,
2013-03-04 13:11:00,60.0,25.0,-100.00,NNW,347,6.0,-999.0,25,0.00,,,-99.99,836.000000,,2013-03-04 18:11:00,
2013-03-04 13:22:00,60.0,25.0,-100.00,NNW,347,6.0,-999.0,25,0.00,,,-99.99,836.000000,,2013-03-04 18:22:00,
2013-03-04 13:32:00,61.0,24.0,-100.00,North,7,5.0,-999.0,24,0.00,,,-99.99,829.000000,,2013-03-04 18:32:00,
2013-03-04 13:42:00,61.0,24.0,-100.00,NNE,15,5.0,-999.0,24,0.00,,,-99.99,816.000000,,2013-03-04 18:42:00,
2013-03-04 13:52:00,61.0,24.0,-100.00,NNE,15,5.0,-999.0,24,0.00,,,-99.99,816.000000,,2013-03-04 18:52:00,
2013-03-04 14:02:00,62.0,26.0,-100.00,NNE,22,6.0,-999.0,24,0.00,,,-99.99,800.000000,,2013-03-04 19:02:00,
2013-03-04 14:11:00,62.0,25.0,-100.00,ENE,60,4.0,-999.0,24,0.00,,,-99.99,779.000000,,2013-03-04 19:11:00,
2013-03-04 14:22:00,62.0,25.0,-100.00,ENE,60,4.0,-999.0,24,0.00,,,-99.99,779.000000,,2013-03-04 19:22:00,
2013-03-04 14:32:00,62.0,25.0,-100.00,NE,56,5.0,-999.0,24,0.00,,,-99.99,754.000000,,2013-03-04 19:32:00,
2013-03-04 14:42:00,63.0,25.0,-100.00,NNE,25,5.0,-999.0,23,0.00,,,-99.99,728.000000,,2013-03-04 19:42:00,
2013-03-04 14:52:00,63.0,25.0,-100.00,NNE,25,5.0,-999.0,23,0.00,,,-99.99,728.000000,,2013-03-04 19:52:00,
2013-03-04 15:02:00,64.0,25.0,-100.00,NE,45,5.0,-999.0,23,0.00,,,-99.99,696.700012,,2013-03-04 20:02:00,
2013-03-04 15:11:00,64.0,25.0,-100.00,NNE,19,4.0,-999.0,22,0.00,,,-99.99,661.299988,,2013-03-04 20:11:00,
2013-03-04 15:22:00,64.0,25.0,-100.00,NNE,19,4.0,-999.0,22,0.00,,,-99.99,661.299988,,2013-03-04 20:22:00,
2013-03-04 15:32:00,65.0,25.0,-100.00,North,1,5.0,-999.0,21,0.00,,,-99.99,623.000000,,2013-03-04 20:32:00,
2013-03-04 15:42:00,65.0,25.0,-100.00,ENE,71,3.0,-999.0,21,0.00,,,-99.99,583.200012,,2013-03-04 20:42:00,
2013-03-04 15:53:00,65.0,25.0,-100.00,ENE,71,3.0,-999.0,21,0.00,,,-99.99,583.200012,,2013-03-04 20:53:00,
2013-03-04 16:02:00,66.0,24.0,-100.00,NE,50,4.0,-999.0,20,0.00,,,-99.99,539.299988,,2013-03-04 21:02:00,
2013-03-04 16:12:00,66.0,25.0,-100.00,NNE,28,3.0,-999.0,21,0.00,,,-99.99,492.100006,,2013-03-04 21:12:00,
2013-03-04 16:22:00,66.0,25.0,-100.00,NNE,28,3.0,-999.0,21,0.00,,,-99.99,492.100006,,2013-03-04 21:22:00,
2013-03-04 16:32:00,66.0,27.0,-100.00,ENE,59,4.0,-999.0,23,0.00,,,-99.99,445.500000,,2013-03-04 21:32:00,
2013-03-04 16:42:00,65.0,29.0,-100.00,SE,146,6.0,-999.0,25,0.00,,,-99.99,393.799988,,2013-03-04 21:42:00,
2013-03-04 16:53:00,65.0,29.0,-100.00,SE,146,6.0,-999.0,25,0.00,,,-99.99,393.799988,,2013-03-04 21:53:00,
2013-03-04 17:02:00,65.0,30.0,-100.00,SSE,149,6.0,-999.0,26,0.00,,,-99.99,341.100006,,2013-03-04 22:02:00,
2013-03-04 17:12:00,65.0,29.0,-100.00,SE,129,6.0,-999.0,26,0.00,,,-99.99,288.200012,,2013-03-04 22:12:00,
2013-03-04 17:22:00,65.0,29.0,-100.00,SE,129,6.0,-999.0,26,0.00,,,-99.99,288.200012,,2013-03-04 22:22:00,
2013-03-04 17:32:00,64.0,29.0,-100.00,SE,144,5.0,-999.0,26,0.00,,,-99.99,236.100006,,2013-03-04 22:32:00,
2013-03-04 17:42:00,64.0,29.0,-100.00,SSE,150,5.0,-999.0,26,0.00,,,-99.99,184.500000,,2013-03-04 22:42:00,
2013-03-04 17:52:00,64.0,29.0,-100.00,SSE,150,5.0,-999.0,26,0.00,,,-99.99,184.500000,,2013-03-04 22:52:00,
2013-03-04 18:02:00,64.0,29.0,-100.00,SE,125,4.0,-999.0,26,0.00,,,-99.99,134.600006,,2013-03-04 23:02:00,
2013-03-04 18:11:00,64.0,29.0,-100.00,SE,125,4.0,-999.0,26,0.00,,,-99.99,134.600006,,2013-03-04 23:11:00,
2013-03-04 18:22:00,63.0,29.0,-100.00,ESE,111,3.0,-999.0,27,0.00,,,-99.99,42.599998,,2013-03-04 23:22:00,
2013-03-04 18:32:00,62.0,30.0,-100.00,ESE,116,3.0,-999.0,29,0.00,,,-99.99,15.200000,,2013-03-04 23:32:00,
2013-03-04 18:42:00,60.0,31.0,-100.00,East,91,3.0,-999.0,33,0.00,,,-99.99,7.400000,,2013-03-04 23:42:00,
2013-03-04 18:52:00,60.0,31.0,-100.00,East,91,3.0,-999.0,33,0.00,,,-99.99,7.400000,,2013-03-04 23:52:00,
2013-03-04 19:02:00,58.0,31.0,-100.00,East,80,3.0,-999.0,36,0.00,,,-99.99,1.400000,,2013-03-05 00:02:00,
2013-03-04 19:12:00,56.0,31.0,-100.00,East,84,3.0,-999.0,38,0.00,,,-99.99,0.000000,,2013-03-05 00:12:00,
2013-03-04 19:22:00,56.0,31.0,-100.00,East,84,3.0,-999.0,38,0.00,,,-99.99,0.000000,,2013-03-05 00:22:00,
2013-03-04 19:32:00,55.0,33.0,-100.00,ENE,58,4.0,-999.0,43,0.00,,,-99.99,0.000000,,2013-03-05 00:32:00,
2013-03-04 19:42:00,53.0,32.0,-100.00,ENE,59,3.0,-999.0,43,0.00,,,-99.99,0.000000,,2013-03-05 00:42:00,
2013-03-04 19:52:00,53.0,32.0,-100.00,ENE,59,3.0,-999.0,43,0.00,,,-99.99,0.000000,,2013-03-05 00:52:00,
2013-03-04 20:01:00,52.0,32.0,-100.00,ENE,68,2.0,-999.0,46,0.00,,,-99.99,0.000000,,2013-03-05 01:01:00,
2013-03-04 20:12:00,51.0,33.0,-100.00,East,92,3.0,-999.0,48,0.00,,,-99.99,0.000000,,2013-03-05 01:12:00,
2013-03-04 20:22:00,51.0,33.0,-100.00,East,92,3.0,-999.0,48,0.00,,,-99.99,0.000000,,2013-03-05 01:22:00,
2013-03-04 20:32:00,52.0,33.0,-100.00,East,95,4.0,-999.0,48,0.00,,,-99.99,0.000000,,2013-03-05 01:32:00,
2013-03-04 20:42:00,51.0,32.0,-100.00,East,94,3.0,-999.0,49,0.00,,,-99.99,0.000000,,2013-03-05 01:42:00,
2013-03-04 20:52:00,51.0,32.0,-100.00,East,94,3.0,-999.0,49,0.00,,,-99.99,0.000000,,2013-03-05 01:52:00,
2013-03-04 21:01:00,48.0,34.0,-100.00,ESE,106,3.0,-999.0,56,0.00,,,-99.99,0.000000,,2013-03-05 02:01:00,
2013-03-04 21:12:00,49.0,32.0,-100.00,ESE,102,4.0,-999.0,51,0.00,,,-99.99,0.000000,,2013-03-05 02:12:00,
2013-03-04 21:22:00,49.0,32.0,-100.00,ESE,102,4.0,-999.0,51,0.00,,,-99.99,0.000000,,2013-03-05 02:22:00,
2013-03-04 21:32:00,50.0,31.0,-100.00,East,82,5.0,-999.0,47,0.00,,,-99.99,0.000000,,2013-03-05 02:32:00,
2013-03-04 21:42:00,50.0,34.0,-100.00,ESE,113,5.0,-999.0,52,0.00,,,-99.99,0.000000,,2013-03-05 02:42:00,
2013-03-04 21:53:00,50.0,34.0,-100.00,ESE,113,5.0,-999.0,52,0.00,,,-99.99,0.000000,,2013-03-05 02:53:00,
2013-03-04 22:02:00,50.0,35.0,-100.00,ESE,115,6.0,-999.0,57,0.00,,,-99.99,0.000000,,2013-03-05 03:02:00,
2013-03-04 22:12:00,50.0,36.0,-100.00,ESE,104,6.0,-999.0,58,0.00,,,-99.99,0.000000,,2013-03-05 03:12:00,
2013-03-04 22:22:00,50.0,36.0,-100.00,ESE,104,6.0,-999.0,58,0.00,,,-99.99,0.000000,,2013-03-05 03:22:00,
2013-03-04 22:32:00,49.0,36.0,-100.00,East,98,5.0,-999.0,60,0.00,,,-99.99,0.000000,,2013-03-05 03:32:00,
2013-03-04 22:42:00,49.0,36.0,-100.00,East,98,5.0,-999.0,60,0.00,,,-99.99,0.000000,,2013-03-05 03:42:00,
2013-03-04 22:52:00,48.0,36.0,-100.00,East,98,4.0,-999.0,62,0.00,,,-99.99,0.000000,,2013-03-05 03:52:00,
2013-03-04 23:02:00,48.0,36.0,-100.00,ESE,111,4.0,-999.0,64,0.00,,,-99.99,0.000000,,2013-03-05 04:02:00,
2013-03-04 23:12:00,48.0,37.0,-100.00,ESE,120,4.0,-999.0,66,0.00,,,-99.99,0.000000,,2013-03-05 04:12:00,
2013-03-04 23:22:00,48.0,37.0,-100.00,ESE,120,4.0,-999.0,66,0.00,,,-99.99,0.000000,,2013-03-05 04:22:00,
2013-03-04 23:32:00,47.0,39.0,-100.00,ESE,119,5.0,-999.0,71,0.00,,,-99.99,0.000000,,2013-03-05 04:32:00,
2013-03-04 23:42:00,48.0,39.0,-100.00,South,182,6.0,-999.0,72,0.00,,,-99.99,0.000000,,2013-03-05 04:42:00,
2013-03-04 23:52:00,48.0,39.0,-100.00,South,182,6.0,-999.0,72,0.00,,,-99.99,0.000000,,2013-03-05 04:52:00,